Time;durP1;ratioP1;P1;durP2;ratioP2;P2;SDS_P1;SDS_P2;PMS_P1;PMS_P2;Temp;Humidity;BMP_temperature;BMP_pressure;BME280_temperature;BME280_humidity;BME280_pressure;Samples;Min_cycle;Max_cycle;Signal;HPM_P1;HPM_P2
2021/09/01 00:00:30;;;;;;;13.60;8.50;;;;;;;17.94;64.78;100230.52;117370;1182;23450;-59
2021/09/01 00:02:58;;;;;;;13.30;7.70;;;;;;;17.91;64.84;100230.80;117430;1184;23541;-59
2021/09/01 00:05:27;;;;;;;17.40;7.90;;;;;;;17.89;64.81;100228.77;117443;1185;23534;-66
2021/09/01 00:07:55;;;;;;;15.10;8.50;;;;;;;17.89;64.97;100225.75;117350;1186;21850;-67
2021/09/01 00:10:23;;;;;;;13.60;8.80;;;;;;;17.90;64.82;100226.61;117385;1188;24234;-66
2021/09/01 00:12:52;;;;;;;19.40;9.60;;;;;;;17.93;64.72;100225.42;117368;1185;23461;-67
2021/09/01 00:15:39;;;;;;;16.30;9.80;;;;;;;17.83;64.69;100226.91;117324;1184;21904;-59
2021/09/01 00:18:08;;;;;;;22.70;10.20;;;;;;;17.82;64.69;100225.91;117445;1185;23438;-59
2021/09/01 00:20:37;;;;;;;18.00;10.30;;;;;;;17.82;64.73;100228.21;117422;1183;24152;-58
2021/09/01 00:23:05;;;;;;;22.30;10.80;;;;;;;17.83;64.73;100226.58;117358;1185;21855;-58
2021/09/01 00:25:34;;;;;;;18.30;10.70;;;;;;;17.85;64.70;100225.25;117327;1186;21916;-67
2021/09/01 00:28:02;;;;;;;19.90;10.80;;;;;;;17.84;64.64;100224.21;117392;1182;22931;-66
2021/09/01 00:30:30;;;;;;;24.10;12.00;;;;;;;17.84;64.67;100221.39;117516;1185;21854;-58
2021/09/01 00:32:58;;;;;;;25.20;12.60;;;;;;;17.87;64.71;100220.74;117408;1185;21891;-58
2021/09/01 00:35:26;;;;;;;19.00;11.30;;;;;;;17.90;64.58;100217.73;117384;1185;21932;-66
2021/09/01 00:37:54;;;;;;;24.50;12.40;;;;;;;17.92;64.42;100212.48;117367;1182;23448;-67
2021/09/01 00:40:22;;;;;;;25.00;13.80;;;;;;;17.93;64.36;100212.80;117388;1185;21858;-67
2021/09/01 00:42:51;;;;;;;26.10;15.50;;;;;;;17.90;64.31;100215.79;117346;1182;23446;-66
2021/09/01 00:45:20;;;;;;;19.70;14.10;;;;;;;17.90;64.43;100214.18;117334;1182;22937;-67
2021/09/01 00:47:49;;;;;;;23.60;16.10;;;;;;;17.89;64.36;100212.45;117441;1182;22005;-59
2021/09/01 00:50:17;;;;;;;27.60;17.30;;;;;;;17.87;64.34;100214.70;117280;1186;21862;-67
2021/09/01 00:52:45;;;;;;;27.20;18.10;;;;;;;17.83;64.37;100214.50;117369;1185;24259;-66
2021/09/01 00:55:14;;;;;;;31.90;18.60;;;;;;;17.79;64.49;100210.78;117322;1182;23628;-67
2021/09/01 00:57:42;;;;;;;31.40;18.20;;;;;;;17.75;64.40;100208.30;117347;1187;21896;-58
2021/09/01 01:00:16;;;;;;;29.80;19.20;;;;;;;17.67;64.72;100209.00;117307;1186;23462;-67
2021/09/01 01:02:44;;;;;;;36.60;21.00;;;;;;;17.61;64.71;100208.20;117362;1185;21862;-58
2021/09/01 01:05:13;;;;;;;30.90;21.00;;;;;;;17.53;64.92;100208.90;117399;1185;23628;-67
2021/09/01 01:07:42;;;;;;;38.10;22.80;;;;;;;17.54;64.65;100204.05;117390;1183;21974;-68
2021/09/01 01:10:30;;;;;;;41.60;24.40;;;;;;;17.57;64.37;100193.48;117429;1186;21854;-59
2021/09/01 01:12:59;;;;;;;50.10;24.90;;;;;;;17.56;64.25;100189.43;117372;1185;24153;-67
2021/09/01 01:15:47;;;;;;;40.90;22.90;;;;;;;17.44;64.43;100191.57;117317;1185;22170;-58
2021/09/01 01:18:18;;;;;;;41.80;24.50;;;;;;;17.31;64.64;100188.06;117348;1185;21996;-67
2021/09/01 01:20:48;;;;;;;39.90;23.00;;;;;;;17.21;64.85;100184.02;117431;1185;23452;-67
2021/09/01 01:23:17;;;;;;;38.90;23.40;;;;;;;17.15;64.89;100180.19;117314;1186;22649;-66
2021/09/01 01:25:45;;;;;;;32.50;21.50;;;;;;;17.13;65.00;100176.21;117177;1186;22625;-58
2021/09/01 01:28:14;;;;;;;33.70;22.80;;;;;;;17.15;65.02;100169.26;117336;1182;23634;-58
2021/09/01 01:30:42;;;;;;;33.90;21.50;;;;;;;17.16;65.09;100164.42;117375;1179;24150;-67
2021/09/01 01:33:11;;;;;;;32.40;21.10;;;;;;;17.13;64.91;100162.73;117373;1182;24175;-58
2021/09/01 01:35:43;;;;;;;35.70;22.50;;;;;;;17.03;64.97;100158.20;117350;1183;23463;-67
2021/09/01 01:38:15;;;;;;;36.90;22.10;;;;;;;17.00;64.99;100155.52;117322;1185;21871;-67
2021/09/01 01:40:43;;;;;;;38.50;22.50;;;;;;;16.99;64.81;100153.64;117418;1182;23544;-63
2021/09/01 01:43:12;;;;;;;35.80;22.50;;;;;;;16.90;65.01;100149.14;117392;1182;22743;-66
2021/09/01 01:45:44;;;;;;;31.30;21.70;;;;;;;16.83;65.05;100151.21;117411;1185;23123;-67
2021/09/01 01:48:13;;;;;;;35.70;21.10;;;;;;;16.79;65.02;100146.05;117400;1185;22966;-58
2021/09/01 01:50:43;;;;;;;31.60;22.20;;;;;;;16.78;64.81;100144.17;117514;1183;22628;-58
2021/09/01 01:53:12;;;;;;;34.20;21.20;;;;;;;16.72;65.15;100139.61;117442;1185;21835;-66
2021/09/01 01:55:40;;;;;;;36.20;21.40;;;;;;;16.73;65.38;100132.66;117377;1185;23461;-66
2021/09/01 01:58:08;;;;;;;35.80;21.20;;;;;;;16.78;65.52;100129.08;117396;1183;21858;-66
2021/09/01 02:00:36;;;;;;;30.10;21.50;;;;;;;16.83;65.45;100125.50;117339;1185;22307;-67
2021/09/01 02:03:05;;;;;;;32.50;21.70;;;;;;;16.84;65.70;100121.23;117365;1185;22641;-67
2021/09/01 02:05:38;;;;;;;32.40;21.80;;;;;;;16.87;65.84;100123.39;117354;1183;23476;-58
2021/09/01 02:08:06;;;;;;;32.20;20.40;;;;;;;16.92;65.86;100120.35;117393;1185;21852;-58
2021/09/01 02:10:34;;;;;;;29.80;20.80;;;;;;;16.99;65.77;100119.91;117444;1185;21855;-67
2021/09/01 02:13:03;;;;;;;35.30;21.90;;;;;;;17.05;65.79;100117.71;117431;1185;21884;-58
2021/09/01 02:15:36;;;;;;;31.70;20.60;;;;;;;17.09;65.80;100112.95;117390;1185;23456;-67
2021/09/01 02:18:04;;;;;;;33.40;22.90;;;;;;;17.12;65.90;100111.77;117395;1185;23499;-66
2021/09/01 02:20:32;;;;;;;36.50;21.60;;;;;;;17.16;65.90;100106.80;117344;1180;22030;-59
2021/09/01 02:23:00;;;;;;;28.20;20.20;;;;;;;17.22;65.94;100106.85;117426;1180;22005;-59
2021/09/01 02:25:29;;;;;;;32.30;20.80;;;;;;;17.29;65.98;100107.10;117382;1183;21857;-64
2021/09/01 02:27:58;;;;;;;27.90;20.20;;;;;;;17.35;65.90;100104.19;117389;1176;21899;-59
2021/09/01 02:30:26;;;;;;;30.00;20.30;;;;;;;17.40;65.92;100104.30;117268;1186;21855;-58
2021/09/01 02:32:54;;;;;;;29.40;20.00;;;;;;;17.45;65.86;100104.63;117381;1186;23461;-59
2021/09/01 02:35:23;;;;;;;27.60;19.70;;;;;;;17.50;65.92;100099.22;117363;1183;24135;-66
2021/09/01 02:37:52;;;;;;;31.60;18.90;;;;;;;17.53;66.02;100104.08;117429;1183;23466;-59
2021/09/01 02:40:30;;;;;;;27.80;19.50;;;;;;;17.58;66.04;100103.31;117425;1185;23581;-67
2021/09/01 02:42:59;;;;;;;27.40;18.90;;;;;;;17.65;65.99;100097.85;117417;1185;23608;-59
2021/09/01 02:45:27;;;;;;;27.40;19.10;;;;;;;17.66;65.96;100096.91;117472;1185;23465;-59
2021/09/01 02:47:57;;;;;;;28.80;20.10;;;;;;;17.67;65.90;100098.79;117379;1182;23534;-66
2021/09/01 02:50:25;;;;;;;31.10;18.30;;;;;;;17.73;65.68;100099.60;117440;1185;21962;-66
2021/09/01 02:52:58;;;;;;;29.50;18.80;;;;;;;17.91;65.54;100100.88;117400;1182;23460;-66
2021/09/01 02:55:26;;;;;;;34.80;17.70;;;;;;;18.03;65.30;100102.52;117424;1179;23466;-59
2021/09/01 02:57:54;;;;;;;24.20;18.10;;;;;;;17.94;65.38;100103.42;117412;1184;21996;-66
2021/09/01 03:00:23;;;;;;;26.70;17.60;;;;;;;17.84;65.43;100101.25;117347;1185;24148;-62
2021/09/01 03:02:51;;;;;;;26.10;16.20;;;;;;;17.79;65.39;100103.26;117370;1183;21872;-58
2021/09/01 03:05:20;;;;;;;27.60;16.50;;;;;;;17.73;65.43;100104.94;117403;1182;23541;-58
2021/09/01 03:07:48;;;;;;;25.30;15.80;;;;;;;17.64;65.54;100104.43;117350;1185;23449;-65
2021/09/01 03:10:36;;;;;;;26.40;16.30;;;;;;;17.57;65.56;100102.66;117363;1188;21864;-58
2021/09/01 03:13:14;;;;;;;25.50;17.10;;;;;;;17.51;65.72;100104.70;117382;1184;23535;-66
2021/09/01 03:16:02;;;;;;;30.10;16.50;;;;;;;17.43;65.77;100102.57;117398;1186;22137;-58
2021/09/01 03:18:30;;;;;;;23.50;16.00;;;;;;;17.38;65.76;100105.97;117397;1182;23465;-66
2021/09/01 03:20:58;;;;;;;19.80;14.90;;;;;;;17.33;65.88;100105.34;117394;1185;21862;-58
2021/09/01 03:23:26;;;;;;;22.50;14.60;;;;;;;17.28;65.75;100103.95;117410;1183;21870;-65
2021/09/01 03:25:57;;;;;;;22.20;15.40;;;;;;;17.24;65.95;100102.69;117391;1182;23516;-66
2021/09/01 03:28:25;;;;;;;23.60;14.20;;;;;;;17.23;65.89;100102.18;117303;1184;22916;-59
2021/09/01 03:30:54;;;;;;;37.50;14.50;;;;;;;17.27;66.00;100099.39;117395;1185;23466;-58
2021/09/01 03:33:22;;;;;;;40.60;15.80;;;;;;;17.29;65.92;100104.11;117375;1185;21867;-60
2021/09/01 03:35:50;;;;;;;55.50;15.90;;;;;;;17.30;65.98;100106.55;117393;1185;23463;-59
2021/09/01 03:38:18;;;;;;;48.80;16.30;;;;;;;17.31;66.08;100104.55;117371;1185;21874;-58
2021/09/01 03:40:47;;;;;;;38.10;15.30;;;;;;;17.35;66.16;100109.33;117502;1184;21989;-58
2021/09/01 03:43:15;;;;;;;28.50;14.30;;;;;;;17.39;66.29;100107.02;117443;1183;24159;-67
2021/09/01 03:45:43;;;;;;;29.50;15.20;;;;;;;17.45;66.38;100109.39;117370;1185;21865;-58
2021/09/01 03:48:11;;;;;;;26.60;14.80;;;;;;;17.53;66.48;100109.17;117338;1185;22940;-66
2021/09/01 03:50:41;;;;;;;24.90;13.20;;;;;;;17.63;66.44;100106.48;117350;1182;23455;-66
2021/09/01 03:53:09;;;;;;;23.70;14.70;;;;;;;17.72;66.62;100107.29;117382;1185;24152;-58
2021/09/01 03:55:37;;;;;;;27.50;15.10;;;;;;;17.82;66.65;100107.02;117353;1185;21861;-67
2021/09/01 03:58:05;;;;;;;28.20;14.00;;;;;;;17.92;66.82;100106.70;117439;1184;23449;-67
2021/09/01 04:00:34;;;;;;;21.60;13.50;;;;;;;18.04;66.72;100110.77;117427;1185;21891;-58
2021/09/01 04:03:02;;;;;;;19.70;12.10;;;;;;;18.10;66.70;100117.45;117444;1182;21871;-58
2021/09/01 04:05:31;;;;;;;20.40;11.80;;;;;;;18.15;67.02;100115.93;117379;1183;21858;-59
2021/09/01 04:07:59;;;;;;;22.70;11.30;;;;;;;18.22;67.20;100113.31;117378;1185;23499;-67
2021/09/01 04:10:27;;;;;;;29.50;12.50;;;;;;;18.32;67.39;100113.73;117358;1185;21852;-67
2021/09/01 04:12:56;;;;;;;22.40;11.00;;;;;;;18.45;67.43;100114.33;117342;1185;21855;-67
2021/09/01 04:15:24;;;;;;;22.50;10.10;;;;;;;18.58;67.38;100114.95;117422;1182;21853;-67
2021/09/01 04:17:52;;;;;;;22.50;10.90;;;;;;;18.70;67.37;100118.44;117377;1185;23437;-67
2021/09/01 04:20:20;;;;;;;27.50;10.80;;;;;;;18.79;67.19;100119.76;117371;1185;21854;-58
2021/09/01 04:22:55;;;;;;;25.30;10.70;;;;;;;18.88;67.08;100120.56;117325;1176;24313;-67
2021/09/01 04:25:23;;;;;;;28.00;11.10;;;;;;;18.94;67.07;100123.83;117303;1185;21854;-58
2021/09/01 04:27:51;;;;;;;17.90;10.40;;;;;;;19.05;66.82;100120.60;117364;1185;23469;-67
2021/09/01 04:30:20;;;;;;;21.10;10.40;;;;;;;19.17;66.66;100120.87;117394;1185;23451;-67
2021/09/01 04:32:48;;;;;;;18.90;9.80;;;;;;;19.24;66.69;100115.86;117365;1185;21864;-59
2021/09/01 04:35:16;;;;;;;22.80;10.50;;;;;;;19.29;66.84;100113.86;117400;1184;22916;-59
2021/09/01 04:37:44;;;;;;;27.80;10.70;;;;;;;19.37;66.74;100116.27;117422;1182;23468;-67
2021/09/01 04:40:13;;;;;;;21.90;11.00;;;;;;;19.42;66.59;100116.90;117352;1184;22511;-58
2021/09/01 04:42:41;;;;;;;19.40;9.70;;;;;;;19.51;66.40;100111.23;117282;1185;21878;-67
2021/09/01 04:45:10;;;;;;;19.40;10.30;;;;;;;19.58;66.42;100104.65;117439;1183;21858;-58
2021/09/01 04:47:38;;;;;;;27.10;11.10;;;;;;;19.68;66.38;100096.64;117436;1182;24717;-59
2021/09/01 04:50:22;;;;;;;17.60;9.70;;;;;;;19.84;66.25;100092.93;117454;1176;23578;-67
2021/09/01 04:52:50;;;;;;;19.80;9.90;;;;;;;19.98;66.48;100085.97;117319;1183;21854;-58
2021/09/01 04:55:18;;;;;;;20.00;9.70;;;;;;;20.19;66.55;100086.37;117309;1184;21864;-57
2021/09/01 04:57:48;;;;;;;14.20;9.10;;;;;;;20.33;66.53;100085.73;117364;1182;23640;-67
2021/09/01 05:00:16;;;;;;;17.20;9.50;;;;;;;20.45;66.37;100080.61;117344;1180;23465;-67
2021/09/01 05:02:45;;;;;;;19.50;9.20;;;;;;;20.54;66.41;100075.84;117397;1182;21854;-67
2021/09/01 05:05:13;;;;;;;16.60;10.20;;;;;;;20.60;66.40;100075.44;117394;1185;23567;-59
2021/09/01 05:07:41;;;;;;;17.60;9.00;;;;;;;20.62;66.39;100073.75;117339;1183;21858;-67
2021/09/01 05:10:31;;;;;;;19.00;9.00;;;;;;;20.67;66.18;100067.34;117381;1188;24178;-59
2021/09/01 05:13:01;;;;;;;41.00;10.40;;;;;;;20.78;66.00;100069.05;117481;1182;22901;-58
2021/09/01 05:15:30;;;;;;;20.50;9.20;;;;;;;20.87;66.04;100065.69;117425;1185;23457;-59
2021/09/01 05:17:58;;;;;;;14.70;8.10;;;;;;;21.00;65.89;100067.20;117412;1179;24142;-67
2021/09/01 05:20:46;;;;;;;23.00;8.10;;;;;;;21.19;66.07;100067.34;117401;1185;21858;-68
2021/09/01 05:23:16;;;;;;;25.60;9.80;;;;;;;21.43;66.55;100063.71;117331;1183;22322;-68
2021/09/01 05:25:54;;;;;;;33.80;10.00;;;;;;;21.75;66.41;100058.52;117339;1185;22023;-59
2021/09/01 05:28:30;;;;;;;26.60;9.10;;;;;;;21.96;66.14;100058.97;117451;1185;21864;-59
2021/09/01 05:30:59;;;;;;;18.30;8.00;;;;;;;22.15;66.01;100056.81;117348;1185;21856;-59
2021/09/01 05:33:29;;;;;;;12.30;7.50;;;;;;;22.34;65.83;100052.91;117379;1185;22957;-59
2021/09/01 05:35:57;;;;;;;12.60;8.40;;;;;;;22.44;65.72;100053.83;117383;1183;21855;-59
2021/09/01 05:38:26;;;;;;;13.70;7.60;;;;;;;22.64;65.71;100050.36;117444;1184;23685;-67
2021/09/01 05:40:56;;;;;;;11.60;8.00;;;;;;;22.77;65.75;100046.30;117398;1183;21869;-60
2021/09/01 05:43:25;;;;;;;11.60;7.30;;;;;;;22.86;65.79;100048.16;117373;1185;23465;-67
2021/09/01 05:45:53;;;;;;;11.20;6.80;;;;;;;22.92;65.85;100049.89;117446;1182;21864;-59
2021/09/01 05:48:22;;;;;;;9.40;6.10;;;;;;;23.09;66.18;100046.75;117437;1183;23466;-59
2021/09/01 05:51:10;;;;;;;12.20;5.80;;;;;;;23.30;65.84;100044.11;117406;1185;21986;-59
2021/09/01 05:53:38;;;;;;;9.80;5.90;;;;;;;23.41;65.40;100042.79;117319;1184;21863;-59
2021/09/01 05:56:07;;;;;;;15.70;6.20;;;;;;;23.47;65.39;100040.88;117364;1185;23437;-59
2021/09/01 05:58:38;;;;;;;13.50;6.20;;;;;;;23.64;65.04;100040.77;117332;1182;22961;-68
2021/09/01 06:01:06;;;;;;;9.80;6.90;;;;;;;23.68;65.57;100039.22;117418;1184;23550;-67
2021/09/01 06:03:37;;;;;;;14.40;7.80;;;;;;;23.78;65.34;100036.00;117319;1185;22219;-68
2021/09/01 06:06:07;;;;;;;12.70;8.30;;;;;;;23.91;65.20;100038.13;117372;1185;21857;-67
2021/09/01 06:08:35;;;;;;;18.40;7.30;;;;;;;24.09;65.16;100040.92;117361;1182;23917;-69
2021/09/01 06:11:05;;;;;;;14.40;6.90;;;;;;;24.39;64.66;100034.01;117328;1183;21861;-59
2021/09/01 06:13:34;;;;;;;13.60;6.50;;;;;;;24.61;64.50;100027.73;117388;1185;21893;-68
2021/09/01 06:16:03;;;;;;;6.60;5.10;;;;;;;24.72;64.36;100028.70;117329;1183;22634;-66
2021/09/01 06:18:32;;;;;;;9.00;5.00;;;;;;;24.85;63.72;100028.18;117427;1182;22963;-68
2021/09/01 06:21:00;;;;;;;7.10;5.00;;;;;;;25.03;63.66;100026.45;117355;1183;21871;-63
2021/09/01 06:23:28;;;;;;;8.60;6.20;;;;;;;25.18;63.48;100025.25;117369;1184;23466;-63
2021/09/01 06:25:57;;;;;;;8.80;5.50;;;;;;;25.34;63.41;100022.73;117368;1186;23551;-67
2021/09/01 06:28:26;;;;;;;10.80;6.00;;;;;;;25.57;63.33;100020.27;117313;1183;23569;-68
2021/09/01 06:30:54;;;;;;;12.30;6.00;;;;;;;25.76;62.25;100016.56;117286;1182;22925;-67
2021/09/01 06:33:22;;;;;;;9.50;6.10;;;;;;;25.89;62.26;100012.98;117366;1182;24214;-59
2021/09/01 06:35:50;;;;;;;10.00;6.10;;;;;;;26.26;61.71;100012.61;117408;1185;22918;-67
2021/09/01 06:38:19;;;;;;;10.60;6.50;;;;;;;26.27;61.43;100011.63;117379;1182;23466;-59
2021/09/01 06:40:47;;;;;;;12.30;6.80;;;;;;;26.42;61.76;100012.25;117396;1182;21852;-59
2021/09/01 06:43:16;;;;;;;11.50;6.60;;;;;;;26.58;61.88;100013.00;117353;1182;22819;-59
2021/09/01 06:45:46;;;;;;;9.60;4.70;;;;;;;26.78;61.36;100013.52;117316;1185;21854;-68
2021/09/01 06:48:15;;;;;;;9.10;4.50;;;;;;;26.93;60.93;100011.30;117406;1181;23474;-59
2021/09/01 06:50:43;;;;;;;12.00;6.00;;;;;;;27.07;60.71;100013.67;117314;1182;21858;-68
2021/09/01 06:53:12;;;;;;;6.20;4.20;;;;;;;27.29;60.70;100008.53;117356;1185;23602;-68
2021/09/01 06:55:41;;;;;;;7.30;4.70;;;;;;;27.50;59.81;100013.95;117359;1185;21864;-59
2021/09/01 06:58:14;;;;;;;10.00;4.70;;;;;;;27.80;59.29;100013.39;117359;1185;22615;-67
2021/09/01 07:00:43;;;;;;;6.90;4.40;;;;;;;27.82;58.98;100012.52;117382;1188;22918;-59
2021/09/01 07:03:11;;;;;;;9.50;4.30;;;;;;;27.94;59.23;100011.44;117339;1183;23474;-68
2021/09/01 07:05:40;;;;;;;5.00;3.30;;;;;;;28.15;59.20;100009.75;117389;1185;23563;-67
2021/09/01 07:08:13;;;;;;;7.20;3.50;;;;;;;28.32;58.21;100005.65;117336;1185;24167;-59
2021/09/01 07:10:42;;;;;;;5.70;3.50;;;;;;;28.44;57.97;100001.79;117349;1182;21845;-66
2021/09/01 07:13:11;;;;;;;7.60;3.90;;;;;;;28.77;57.74;100000.48;117495;1185;22655;-67
2021/09/01 07:15:40;;;;;;;5.40;3.30;;;;;;;28.75;56.27;99999.46;117412;1184;21973;-67
2021/09/01 07:18:09;;;;;;;6.80;3.90;;;;;;;28.75;56.01;99997.81;117431;1185;24171;-66
2021/09/01 07:20:38;;;;;;;6.30;3.00;;;;;;;28.85;55.77;99995.87;117419;1187;21855;-67
2021/09/01 07:23:06;;;;;;;5.10;3.10;;;;;;;28.95;55.13;99995.42;117467;1182;21854;-67
2021/09/01 07:25:36;;;;;;;7.00;2.80;;;;;;;29.02;54.35;99992.21;117283;1186;23439;-66
2021/09/01 07:28:05;;;;;;;3.30;2.60;;;;;;;29.12;55.03;99992.38;117415;1185;21853;-61
2021/09/01 07:30:33;;;;;;;7.50;2.80;;;;;;;29.30;54.48;99988.96;117438;1182;22837;-67
2021/09/01 07:33:02;;;;;;;6.40;2.50;;;;;;;29.47;54.73;99985.16;117430;1183;24152;-59
2021/09/01 07:35:30;;;;;;;4.90;2.40;;;;;;;29.52;53.93;99981.03;117352;1181;21857;-69
2021/09/01 07:37:59;;;;;;;5.40;2.50;;;;;;;29.62;52.68;99981.38;117297;1185;21864;-59
2021/09/01 07:40:27;;;;;;;6.40;2.30;;;;;;;29.69;53.33;99980.48;117393;1185;23547;-59
2021/09/01 07:42:55;;;;;;;5.20;1.80;;;;;;;29.79;52.27;99978.17;117321;1184;21855;-68
2021/09/01 07:45:24;;;;;;;6.00;1.80;;;;;;;29.84;52.07;99981.52;117350;1186;22915;-59
2021/09/01 07:47:53;;;;;;;6.10;1.80;;;;;;;29.91;52.48;99984.28;117357;1183;23474;-67
2021/09/01 07:50:28;;;;;;;3.70;2.00;;;;;;;29.99;52.14;99979.91;117437;1186;22318;-60
2021/09/01 07:52:57;;;;;;;7.90;2.20;;;;;;;30.26;52.38;99977.34;117382;1183;21979;-60
2021/09/01 07:55:25;;;;;;;4.80;2.40;;;;;;;30.25;52.11;99976.75;117415;1182;23544;-60
2021/09/01 07:57:53;;;;;;;5.80;2.50;;;;;;;30.26;51.46;99981.82;117383;1180;21854;-60
2021/09/01 08:00:21;;;;;;;4.70;3.00;;;;;;;30.30;51.69;99979.13;117387;1184;21885;-67
2021/09/01 08:02:51;;;;;;;9.90;4.30;;;;;;;30.37;51.87;99979.32;117367;1185;21895;-59
2021/09/01 08:05:20;;;;;;;;;;;;;;;30.40;49.76;99976.30;117408;1185;21918;-60
2021/09/01 08:07:48;;;;;;;8.80;3.90;;;;;;;30.39;50.10;99974.36;117424;1182;21924;-68
2021/09/01 08:10:37;;;;;;;8.70;4.30;;;;;;;30.36;48.87;99979.39;117405;1185;21944;-68
2021/09/01 08:13:06;;;;;;;9.70;4.90;;;;;;;30.57;50.41;99979.64;117389;1184;23439;-60
2021/09/01 08:15:36;;;;;;;;;;;;;;;30.48;49.26;99979.13;117446;1184;22945;-60
2021/09/01 08:18:04;;;;;;;12.30;5.00;;;;;;;30.40;48.13;99980.44;117355;1185;22929;-59
2021/09/01 08:20:32;;;;;;;6.30;3.40;;;;;;;30.33;47.72;99975.42;117258;1184;21868;-60
2021/09/01 08:23:00;;;;;;;11.30;4.40;;;;;;;30.23;46.25;99976.40;117345;1183;22918;-69
2021/09/01 08:25:28;;;;;;;7.20;3.80;;;;;;;30.19;48.27;99972.64;117429;1183;22405;-63
2021/09/01 08:27:56;;;;;;;9.40;3.00;;;;;;;30.28;49.07;99975.92;117325;1185;21856;-69
2021/09/01 08:30:25;;;;;;;5.60;3.10;;;;;;;30.42;49.37;99973.76;117408;1183;23072;-69
2021/09/01 08:32:53;;;;;;;7.90;3.60;;;;;;;30.54;48.60;99971.06;117325;1176;22005;-67
2021/09/01 08:35:21;;;;;;;4.80;2.80;;;;;;;30.67;48.51;99965.43;117411;1184;21862;-59
2021/09/01 08:37:50;;;;;;;6.10;2.90;;;;;;;30.94;49.30;99963.45;117216;1186;23560;-60
2021/09/01 08:40:18;;;;;;;4.80;2.90;;;;;;;31.05;48.49;99965.52;117351;1185;23535;-63
2021/09/01 08:42:47;;;;;;;6.30;3.40;;;;;;;31.00;47.83;99962.88;117385;1183;23442;-59
2021/09/01 08:45:16;;;;;;;3.90;2.90;;;;;;;31.02;47.49;99957.44;117338;1184;21854;-60
2021/09/01 08:47:44;;;;;;;4.90;3.40;;;;;;;31.04;47.31;99952.77;117351;1185;21855;-69
2021/09/01 08:50:14;;;;;;;5.80;3.20;;;;;;;31.04;48.12;99950.69;117229;1185;23539;-60
2021/09/01 08:52:43;;;;;;;4.90;3.00;;;;;;;31.15;48.17;99945.52;117377;1188;21854;-68
2021/09/01 08:55:12;;;;;;;4.60;2.50;;;;;;;31.35;48.19;99943.23;117411;1185;21873;-69
2021/09/01 08:57:41;;;;;;;6.80;2.30;;;;;;;31.45;46.68;99942.20;117417;1185;21984;-60
2021/09/01 09:00:10;;;;;;;3.20;2.10;;;;;;;31.52;46.97;99944.16;117444;1181;21851;-59
2021/09/01 09:02:38;;;;;;;3.30;1.90;;;;;;;31.61;46.70;99939.98;117371;1185;21853;-60
2021/09/01 09:05:08;;;;;;;3.20;2.00;;;;;;;31.72;47.57;99938.23;117388;1185;24190;-60
2021/09/01 09:07:54;;;;;;;4.10;2.30;;;;;;;31.80;45.63;99932.14;117306;1184;22936;-69
2021/09/01 09:10:29;;;;;;;16.90;3.10;;;;;;;31.75;46.22;99930.70;117416;1181;22915;-60
2021/09/01 09:13:04;;;;;;;7.80;2.20;;;;;;;31.78;46.46;99927.98;117334;1186;22270;-68
2021/09/01 09:15:34;;;;;;;3.90;2.00;;;;;;;31.79;44.05;99925.90;117538;1183;23462;-60
2021/09/01 09:18:03;;;;;;;4.80;1.70;;;;;;;31.68;43.87;99925.02;117337;1181;22808;-68
2021/09/01 09:20:33;;;;;;;9.60;2.80;;;;;;;31.65;45.78;99919.91;117469;1185;21855;-64
2021/09/01 09:23:06;;;;;;;23.20;3.80;;;;;;;31.76;45.86;99915.84;117363;1185;23021;-60
2021/09/01 09:25:35;;;;;;;4.90;2.30;;;;;;;31.90;45.61;99917.27;117415;1183;24005;-60
2021/09/01 09:28:05;;;;;;;6.20;2.80;;;;;;;32.09;46.15;99910.94;117376;1184;21880;-67
2021/09/01 09:30:37;;;;;;;3.70;2.20;;;;;;;32.56;46.91;99901.63;117468;1183;23466;-67
2021/09/01 09:33:16;;;;;;;5.10;2.00;;;;;;;32.72;44.60;99900.61;117298;1185;21851;-59
2021/09/01 09:35:58;;;;;;;35.50;3.90;;;;;;;32.72;45.63;99901.41;117400;1179;21862;-59
2021/09/01 09:38:27;;;;;;;3.40;2.40;;;;;;;32.82;44.77;99898.30;117334;1184;22523;-59
2021/09/01 09:40:56;;;;;;;6.70;2.60;;;;;;;32.79;45.27;99895.19;117418;1184;21964;-60
2021/09/01 09:43:24;;;;;;;3.00;1.90;;;;;;;32.89;44.95;99895.41;117346;1184;22656;-67
2021/09/01 09:46:04;;;;;;;5.20;2.20;;;;;;;33.02;44.43;99894.08;117392;1183;21845;-68
2021/09/01 09:48:36;;;;;;;11.90;3.00;;;;;;;33.05;42.89;99889.02;117351;1184;21864;-59
2021/09/01 09:51:06;;;;;;;8.00;2.20;;;;;;;32.99;43.13;99900.42;117384;1184;21857;-59
2021/09/01 09:53:36;;;;;;;5.10;2.50;;;;;;;33.10;44.47;99900.44;117454;1185;21861;-60
2021/09/01 09:56:07;;;;;;;5.90;3.00;;;;;;;33.20;43.95;99897.45;117435;1184;21865;-67
2021/09/01 09:58:41;;;;;;;3.40;2.10;;;;;;;33.16;43.85;99899.14;117390;1185;21951;-68
2021/09/01 10:01:10;;;;;;;4.90;2.10;;;;;;;33.32;43.44;99901.34;117297;1186;21852;-61
2021/09/01 10:03:39;;;;;;;2.70;1.80;;;;;;;33.33;41.66;99907.98;117457;1180;21851;-69
2021/09/01 10:06:10;;;;;;;23.10;3.70;;;;;;;33.23;41.38;99906.70;117406;1185;21852;-60
2021/09/01 10:08:39;;;;;;;14.90;2.70;;;;;;;33.04;42.06;99904.70;117342;1182;23474;-59
2021/09/01 10:11:09;;;;;;;9.30;2.70;;;;;;;32.98;41.86;99904.92;117431;1184;23487;-68
2021/09/01 10:13:39;;;;;;;5.60;3.50;;;;;;;32.87;40.48;99902.83;117391;1182;23006;-60
2021/09/01 10:16:14;;;;;;;6.80;2.10;;;;;;;32.79;41.37;99905.30;117420;1182;23650;-68
2021/09/01 10:18:43;;;;;;;5.20;2.30;;;;;;;32.73;42.26;99908.93;117387;1184;21858;-59
2021/09/01 10:21:12;;;;;;;6.20;2.10;;;;;;;32.86;42.51;99909.36;117227;1178;21845;-67
2021/09/01 10:23:44;;;;;;;4.20;2.10;;;;;;;32.85;42.52;99909.10;117333;1184;21866;-59
2021/09/01 10:26:27;;;;;;;4.50;2.30;;;;;;;32.61;42.94;99905.80;117406;1185;21865;-60
2021/09/01 10:29:00;;;;;;;6.10;2.30;;;;;;;32.46;43.34;99901.09;117338;1185;24342;-68
2021/09/01 10:31:33;;;;;;;7.30;2.30;;;;;;;32.35;43.86;99901.28;117402;1182;22629;-68
2021/09/01 10:34:21;;;;;;;11.40;3.10;;;;;;;32.28;43.31;99902.95;117375;1182;21858;-69
2021/09/01 10:36:53;;;;;;;8.30;2.00;;;;;;;32.11;42.21;99898.83;117400;1185;21875;-68
2021/09/01 10:39:30;;;;;;;5.20;2.10;;;;;;;31.92;41.90;99899.83;117393;1182;22916;-69
2021/09/01 10:41:58;;;;;;;6.50;2.40;;;;;;;31.62;41.03;99903.45;117346;1175;22646;-68
2021/09/01 10:44:33;;;;;;;3.30;1.80;;;;;;;31.28;42.44;99905.59;117454;1181;22619;-59
2021/09/01 10:47:02;;;;;;;4.30;1.70;;;;;;;30.94;42.24;99900.48;117420;1182;23443;-69
2021/09/01 10:49:53;;;;;;;6.10;2.20;;;;;;;30.79;44.81;99899.05;117395;1185;23469;-68
2021/09/01 10:52:22;;;;;;;4.00;2.20;;;;;;;30.68;44.76;99891.78;117397;1185;23641;-68
2021/09/01 10:54:50;;;;;;;4.80;2.00;;;;;;;30.78;43.55;99884.94;117393;1184;23469;-68
2021/09/01 10:57:27;;;;;;;7.10;2.00;;;;;;;30.90;43.62;99883.14;117418;1185;23439;-71
2021/09/01 10:59:59;;;;;;;7.60;2.40;;;;;;;31.10;42.65;99878.68;117457;1184;21856;-69
2021/09/01 11:02:27;;;;;;;3.20;1.80;;;;;;;31.31;43.27;99876.89;117376;1184;22809;-69
2021/09/01 11:04:58;;;;;;;17.10;2.90;;;;;;;31.45;42.70;99874.23;117333;1182;24163;-59
2021/09/01 11:07:29;;;;;;;20.60;3.10;;;;;;;31.60;42.61;99875.47;117349;1183;22957;-69
2021/09/01 11:10:16;;;;;;;4.40;2.10;;;;;;;31.86;42.39;99876.28;117414;1176;23466;-59
2021/09/01 11:12:44;;;;;;;5.60;2.20;;;;;;;32.25;45.38;99870.52;117448;1183;23548;-68
2021/09/01 11:15:18;;;;;;;3.70;2.10;;;;;;;32.54;49.34;99869.21;117181;1182;23813;-59
2021/09/01 11:17:46;;;;;;;5.90;2.30;;;;;;;32.76;50.23;99867.90;117364;1183;23442;-68
2021/09/01 11:20:14;;;;;;;4.90;1.60;;;;;;;32.83;50.82;99865.55;117392;1185;21855;-67
2021/09/01 11:22:43;;;;;;;4.90;2.20;;;;;;;32.87;50.87;99862.21;117432;1185;22645;-59
2021/09/01 11:25:13;;;;;;;4.50;1.80;;;;;;;32.86;50.69;99865.51;117425;1184;22445;-59